createdAt,value
2022-08-18T00:01:11.647Z,99.90
2022-08-18T00:03:56.734Z,99.90
2022-08-18T00:06:32.419Z,99.90
2022-08-18T00:09:02.674Z,99.90
2022-08-18T00:11:41.197Z,99.90
2022-08-18T00:14:19.347Z,99.90
2022-08-18T00:16:51.568Z,99.90
2022-08-18T00:19:19.537Z,99.90
2022-08-18T00:21:48.780Z,99.90
2022-08-18T00:24:16.754Z,99.90
2022-08-18T00:26:44.726Z,99.90
2022-08-18T00:29:16.637Z,99.90
2022-08-18T00:31:44.600Z,99.90
2022-08-18T00:34:12.779Z,99.90
2022-08-18T00:36:41.124Z,99.90
2022-08-18T00:39:10.580Z,99.90
2022-08-18T00:41:38.538Z,99.90
2022-08-18T00:44:06.390Z,99.90
2022-08-18T00:46:37.718Z,99.90
2022-08-18T00:49:06.079Z,99.90
2022-08-18T00:51:40.756Z,99.90
2022-08-18T00:54:14.647Z,99.90
2022-08-18T00:56:46.189Z,99.90
2022-08-18T00:59:20.610Z,99.90
2022-08-18T01:01:51.323Z,99.90
2022-08-18T01:04:23.832Z,99.90
2022-08-18T01:06:54.964Z,99.90
2022-08-18T01:09:24.546Z,99.90
2022-08-18T01:11:52.494Z,99.90
2022-08-18T01:14:21.211Z,99.90
2022-08-18T01:17:07.613Z,99.90
2022-08-18T01:19:54.053Z,99.90
2022-08-18T01:22:28.476Z,99.90
2022-08-18T01:25:18.037Z,99.90
2022-08-18T01:27:46.114Z,99.90
2022-08-18T01:30:18.277Z,99.90
2022-08-18T01:32:46.850Z,99.90
2022-08-18T01:35:18.150Z,99.90
2022-08-18T01:37:46.140Z,99.90
2022-08-18T01:41:17.270Z,99.90
2022-08-18T01:43:06.185Z,99.90
2022-08-18T01:45:34.575Z,99.90
2022-08-18T01:48:04.879Z,99.90
2022-08-18T01:50:34.218Z,99.90
2022-08-18T01:53:04.387Z,99.90
2022-08-18T01:55:34.194Z,99.90
2022-08-18T01:58:02.427Z,99.90
2022-08-18T02:00:32.258Z,99.90
2022-08-18T02:03:02.771Z,99.90
2022-08-18T02:05:37.332Z,99.90
2022-08-18T02:08:06.561Z,99.90
2022-08-18T02:10:36.217Z,99.90
2022-08-18T02:13:04.848Z,99.90
2022-08-18T02:15:33.519Z,99.90
2022-08-18T02:18:01.472Z,99.90
2022-08-18T02:20:29.348Z,99.90
2022-08-18T02:22:58.660Z,99.90
2022-08-18T02:25:26.626Z,99.90
2022-08-18T02:27:55.884Z,99.90
2022-08-18T02:30:23.890Z,99.90
2022-08-18T02:32:51.825Z,99.90
2022-08-18T02:35:19.942Z,99.90
2022-08-18T02:37:48.221Z,99.90
2022-08-18T02:40:19.020Z,99.90
2022-08-18T02:42:48.038Z,99.90
2022-08-18T02:45:17.559Z,99.90
2022-08-18T02:47:45.920Z,99.90
2022-08-18T02:50:16.572Z,99.90
2022-08-18T02:52:44.510Z,99.90
2022-08-18T02:55:12.856Z,99.90
2022-08-18T02:57:43.654Z,99.90
2022-08-18T03:00:15.301Z,99.90
2022-08-18T03:02:48.686Z,99.90
2022-08-18T03:05:16.894Z,99.90
2022-08-18T03:07:45.401Z,99.90
2022-08-18T03:10:33.528Z,99.90
2022-08-18T03:13:02.173Z,99.90
2022-08-18T03:15:30.063Z,99.90
2022-08-18T03:17:59.579Z,99.90
2022-08-18T03:20:30.917Z,99.90
2022-08-18T03:23:09.514Z,99.90
2022-08-18T03:25:38.349Z,99.90
2022-08-18T03:28:07.009Z,99.90
2022-08-18T03:30:35.180Z,99.90
2022-08-18T03:33:04.733Z,99.90
2022-08-18T03:35:34.190Z,99.90
2022-08-18T03:38:02.500Z,99.90
2022-08-18T03:40:30.387Z,99.90
2022-08-18T03:42:58.326Z,99.90
2022-08-18T03:45:31.918Z,99.90
2022-08-18T03:48:00.697Z,99.90
2022-08-18T03:50:32.241Z,99.90
2022-08-18T03:53:00.395Z,99.90
2022-08-18T03:55:29.567Z,99.90
2022-08-18T03:58:02.844Z,99.90
2022-08-18T04:00:33.395Z,99.90
2022-08-18T04:03:04.022Z,99.90
2022-08-18T04:05:35.178Z,99.90
2022-08-18T04:08:04.901Z,99.90
2022-08-18T04:10:32.768Z,99.90
2022-08-18T04:13:00.945Z,99.90
2022-08-18T04:15:28.933Z,99.90
2022-08-18T04:18:03.844Z,99.90
2022-08-18T04:20:33.689Z,99.90
2022-08-18T04:23:01.987Z,99.90
2022-08-18T04:25:32.921Z,99.90
2022-08-18T04:28:03.605Z,99.90
2022-08-18T04:30:32.261Z,99.90
2022-08-18T04:33:02.405Z,99.90
2022-08-18T04:35:33.621Z,99.90
2022-08-18T04:38:01.697Z,99.90
2022-08-18T04:40:30.057Z,99.90
2022-08-18T04:42:58.144Z,99.90
2022-08-18T04:45:26.175Z,99.90
2022-08-18T04:47:54.201Z,99.90
2022-08-18T04:50:24.454Z,99.90
2022-08-18T04:53:16.944Z,99.90
2022-08-18T04:55:49.312Z,99.90
2022-08-18T04:58:18.769Z,99.90
2022-08-18T05:00:47.174Z,99.90
2022-08-18T05:03:15.597Z,99.90
2022-08-18T05:05:43.608Z,99.90
2022-08-18T05:08:12.887Z,99.90
2022-08-18T05:10:41.425Z,99.90
2022-08-18T05:13:09.779Z,99.90
2022-08-18T05:15:59.335Z,99.90
2022-08-18T05:18:26.639Z,99.90
2022-08-18T05:20:56.676Z,99.90
2022-08-18T05:23:26.614Z,99.90
2022-08-18T05:25:58.850Z,99.90
2022-08-18T05:28:27.133Z,99.90
2022-08-18T05:30:55.180Z,99.90
2022-08-18T05:33:28.279Z,99.90
2022-08-18T05:36:04.435Z,99.90
2022-08-18T05:38:42.514Z,99.90
2022-08-18T05:41:15.209Z,99.90
2022-08-18T05:43:52.061Z,99.90
2022-08-18T05:46:22.087Z,99.90
2022-08-18T05:48:50.963Z,99.90
2022-08-18T05:51:24.302Z,99.90
2022-08-18T05:54:11.346Z,99.90
2022-08-18T05:56:50.237Z,99.90
2022-08-18T05:59:23.544Z,99.90
2022-08-18T06:01:57.475Z,99.90
2022-08-18T06:04:34.503Z,99.90
2022-08-18T06:07:06.473Z,99.90
2022-08-18T06:09:42.617Z,99.90
2022-08-18T06:12:19.150Z,99.90
2022-08-18T06:14:47.198Z,99.90
2022-08-18T06:17:30.245Z,99.90
2022-08-18T06:20:09.170Z,99.90
2022-08-18T06:22:52.094Z,99.90
2022-08-18T06:25:34.180Z,99.90
2022-08-18T06:28:07.285Z,99.90
2022-08-18T06:30:51.154Z,99.90
2022-08-18T06:33:43.335Z,99.90
2022-08-18T06:36:21.501Z,99.90
2022-08-18T06:38:57.057Z,99.90
2022-08-18T06:41:43.492Z,99.90
2022-08-18T06:44:20.781Z,99.90
2022-08-18T06:46:53.662Z,99.90
2022-08-18T06:49:31.947Z,99.90
2022-08-18T06:52:00.233Z,99.90
2022-08-18T06:54:30.560Z,99.90
2022-08-18T06:57:00.403Z,99.90
2022-08-18T06:59:32.342Z,99.90
2022-08-18T07:02:03.903Z,99.90
2022-08-18T07:04:40.237Z,99.90
2022-08-18T07:07:17.355Z,99.90
2022-08-18T07:09:45.744Z,99.90
2022-08-18T07:12:23.117Z,99.90
2022-08-18T07:14:53.566Z,99.90
2022-08-18T07:17:42.738Z,99.90
2022-08-18T07:20:20.978Z,99.90
2022-08-18T07:22:57.365Z,99.90
2022-08-18T07:25:31.949Z,99.90
2022-08-18T07:28:02.701Z,99.90
2022-08-18T07:30:34.457Z,99.90
2022-08-18T07:33:12.597Z,99.90
2022-08-18T07:35:45.570Z,99.90
2022-08-18T07:38:41.333Z,99.90
2022-08-18T07:41:15.519Z,99.90
2022-08-18T07:43:58.178Z,98.80
2022-08-18T07:46:32.751Z,95.70
2022-08-18T07:49:04.701Z,94.30
2022-08-18T07:51:45.773Z,93.70
2022-08-18T07:54:47.800Z,92.20
2022-08-18T07:57:20.492Z,92.30
2022-08-18T07:59:58.670Z,92.60
2022-08-18T08:02:41.388Z,91.40
2022-08-18T08:05:18.537Z,88.70
2022-08-18T08:07:50.933Z,85.80
2022-08-18T08:10:37.422Z,84.20
2022-08-18T08:13:37.068Z,86.40
2022-08-18T08:16:20.095Z,88.50
2022-08-18T08:18:58.284Z,82.40
2022-08-18T08:21:33.265Z,77.50
2022-08-18T08:24:14.092Z,74.60
2022-08-18T08:26:55.161Z,74.20
2022-08-18T08:29:38.492Z,73.40
2022-08-18T08:32:13.481Z,75.30
2022-08-18T08:34:46.305Z,76.20
2022-08-18T08:37:17.650Z,76.80
2022-08-18T08:39:50.605Z,77.40
2022-08-18T08:42:32.072Z,80.20
2022-08-18T08:45:04.678Z,79.70
2022-08-18T08:47:43.673Z,78.20
2022-08-18T08:50:16.776Z,77.30
2022-08-18T08:52:51.386Z,77.90
2022-08-18T08:55:25.569Z,77.00
2022-08-18T08:58:02.007Z,72.30
2022-08-18T09:00:31.063Z,66.70
2022-08-18T09:03:13.424Z,64.80
2022-08-18T09:05:54.777Z,62.20
2022-08-18T09:08:43.833Z,61.70
2022-08-18T09:11:27.734Z,60.60
2022-08-18T09:14:14.969Z,59.80
2022-08-18T09:16:53.251Z,61.60
2022-08-18T09:19:46.107Z,60.70
2022-08-18T09:22:29.766Z,59.00
2022-08-18T09:24:58.764Z,56.90
2022-08-18T09:28:07.320Z,54.20
2022-08-18T09:30:45.144Z,51.30
2022-08-18T09:33:22.913Z,51.00
2022-08-18T09:36:25.701Z,51.20
2022-08-18T09:39:18.588Z,50.90
2022-08-18T09:41:52.661Z,51.10
2022-08-18T09:44:39.538Z,49.70
2022-08-18T09:47:11.183Z,48.60
2022-08-18T09:53:02.271Z,48.10
2022-08-18T09:58:53.853Z,48.80
2022-08-18T10:01:41.298Z,46.70
2022-08-18T10:04:29.108Z,47.00
2022-08-18T10:07:20.785Z,45.30
2022-08-18T10:10:00.817Z,47.40
2022-08-18T10:12:49.144Z,47.10
2022-08-18T10:15:36.665Z,47.40
2022-08-18T10:18:31.608Z,48.50
2022-08-18T10:21:10.558Z,48.70
2022-08-18T10:24:02.903Z,48.80
2022-08-18T10:27:13.563Z,49.50
2022-08-18T10:29:59.562Z,48.00
2022-08-18T10:32:52.264Z,46.40
2022-08-18T10:35:58.398Z,46.60
2022-08-18T10:38:53.445Z,46.50
2022-08-18T10:41:26.406Z,46.90
2022-08-18T10:44:20.830Z,47.90
2022-08-18T10:46:51.463Z,48.00
2022-08-18T10:49:26.024Z,47.70
2022-08-18T10:52:10.745Z,47.00
2022-08-18T10:54:59.158Z,47.90
2022-08-18T10:57:35.428Z,47.40
2022-08-18T11:00:11.659Z,45.40
2022-08-18T11:03:39.988Z,44.90
2022-08-18T11:06:03.633Z,43.20
2022-08-18T11:08:44.648Z,43.90
2022-08-18T11:11:34.242Z,43.60
2022-08-18T11:14:12.379Z,46.60
2022-08-18T11:16:50.575Z,49.80
2022-08-18T11:19:25.767Z,51.30
2022-08-18T11:21:54.507Z,52.50
2022-08-18T11:24:25.621Z,53.80
2022-08-18T11:26:56.009Z,54.90
2022-08-18T11:29:28.723Z,53.30
2022-08-18T11:32:03.988Z,52.70
2022-08-18T11:34:38.072Z,52.50
2022-08-18T11:37:20.864Z,51.70
2022-08-18T11:39:51.057Z,51.70
2022-08-18T11:42:21.703Z,50.20
2022-08-18T11:44:55.959Z,51.50
2022-08-18T11:47:27.769Z,51.90
2022-08-18T11:50:04.411Z,52.40
2022-08-18T11:55:29.021Z,53.40
2022-08-18T11:58:00.308Z,55.10
2022-08-18T12:00:53.586Z,56.20
2022-08-18T12:03:30.040Z,59.70
2022-08-18T12:06:00.679Z,61.00
2022-08-18T12:11:28.811Z,63.90
2022-08-18T12:14:32.310Z,64.10
2022-08-18T12:16:55.775Z,65.10
2022-08-18T12:19:30.670Z,64.10
2022-08-18T12:22:01.905Z,63.60
2022-08-18T12:24:36.789Z,64.80
2022-08-18T12:29:58.275Z,63.30
2022-08-18T12:32:46.474Z,64.00
2022-08-18T12:35:21.721Z,66.50
2022-08-18T12:40:39.938Z,65.50
2022-08-18T12:43:08.034Z,66.60
2022-08-18T12:45:37.986Z,65.80
2022-08-18T12:48:07.174Z,65.80
2022-08-18T12:50:49.957Z,66.90
2022-08-18T12:53:29.820Z,65.80
2022-08-18T12:58:55.827Z,65.30
2022-08-18T13:01:25.466Z,64.30
2022-08-18T13:04:11.087Z,63.70
2022-08-18T13:06:59.222Z,64.20
2022-08-18T13:09:35.000Z,65.60
2022-08-18T13:12:17.199Z,65.10
2022-08-18T13:14:45.822Z,64.90
2022-08-18T13:17:30.518Z,66.20
2022-08-18T13:20:01.645Z,66.10
2022-08-18T13:22:32.477Z,68.70
2022-08-18T13:25:01.464Z,70.20
2022-08-18T13:27:32.735Z,70.10
2022-08-18T13:30:03.470Z,71.40
2022-08-18T13:32:59.494Z,72.00
2022-08-18T13:35:38.064Z,72.40
2022-08-18T13:38:21.759Z,73.20
2022-08-18T13:40:54.893Z,73.60
2022-08-18T13:43:28.147Z,73.90
2022-08-18T13:45:56.538Z,73.20
2022-08-18T13:48:25.546Z,73.30
2022-08-18T13:50:55.769Z,73.90
2022-08-18T13:53:27.599Z,73.90
2022-08-18T13:55:58.578Z,73.70
2022-08-18T13:58:27.719Z,73.90
2022-08-18T14:01:22.476Z,73.40
2022-08-18T14:03:48.117Z,73.70
2022-08-18T14:06:22.644Z,73.90
2022-08-18T14:08:54.575Z,73.10
2022-08-18T14:11:27.995Z,73.40
2022-08-18T14:14:01.888Z,74.20
2022-08-18T14:16:30.937Z,74.00
2022-08-18T14:19:17.654Z,74.40
2022-08-18T14:22:06.240Z,74.60
2022-08-18T14:24:54.432Z,76.70
2022-08-18T14:27:29.018Z,77.20
2022-08-18T14:30:06.669Z,78.30
2022-08-18T14:32:36.384Z,78.30
2022-08-18T14:35:32.138Z,78.90
2022-08-18T14:38:01.556Z,79.90
2022-08-18T14:40:33.321Z,79.70
2022-08-18T14:43:02.661Z,80.00
2022-08-18T14:45:35.666Z,80.30
2022-08-18T14:48:06.640Z,79.60
2022-08-18T14:50:37.037Z,79.20
2022-08-18T14:53:05.403Z,78.70
2022-08-18T14:55:35.941Z,78.20
2022-08-18T14:58:07.174Z,78.20
2022-08-18T15:00:49.880Z,78.50
2022-08-18T15:03:31.284Z,78.00
2022-08-18T15:06:04.679Z,79.40
2022-08-18T15:08:34.454Z,81.30
2022-08-18T15:11:11.695Z,82.20
2022-08-18T15:13:41.616Z,82.60
2022-08-18T15:16:13.713Z,83.10
2022-08-18T15:18:41.758Z,83.90
2022-08-18T15:21:35.057Z,84.90
2022-08-18T15:24:24.361Z,85.20
2022-08-18T15:26:58.238Z,85.50
2022-08-18T15:29:34.271Z,85.70
2022-08-18T15:32:05.854Z,86.20
2022-08-18T15:34:47.278Z,86.90
2022-08-18T15:37:20.375Z,87.10
2022-08-18T15:40:00.922Z,88.20
2022-08-18T15:42:33.208Z,89.20
2022-08-18T15:45:12.108Z,89.20
2022-08-18T15:47:42.214Z,90.00
2022-08-18T15:50:25.634Z,90.10
2022-08-18T15:52:57.617Z,89.40
2022-08-18T15:55:27.533Z,88.80
2022-08-18T15:57:58.274Z,90.10
2022-08-18T16:00:28.145Z,90.10
2022-08-18T16:02:58.740Z,90.50
2022-08-18T16:05:31.809Z,90.90
2022-08-18T16:08:01.219Z,91.20
2022-08-18T16:10:32.241Z,91.70
2022-08-18T16:13:04.369Z,91.80
2022-08-18T16:15:36.925Z,92.10
2022-08-18T16:18:06.664Z,92.50
2022-08-18T16:20:35.126Z,92.50
2022-08-18T16:23:03.592Z,92.60
2022-08-18T16:25:31.565Z,93.40
2022-08-18T16:28:01.395Z,94.60
2022-08-18T16:30:30.197Z,96.00
2022-08-18T16:33:02.778Z,96.50
2022-08-18T16:35:31.532Z,97.40
2022-08-18T16:38:04.463Z,98.50
2022-08-18T16:40:32.433Z,98.90
2022-08-18T16:43:01.726Z,99.60
2022-08-18T16:45:31.470Z,99.50
2022-08-18T16:47:59.740Z,99.90
2022-08-18T16:50:28.149Z,99.90
2022-08-18T16:52:56.489Z,99.90
2022-08-18T16:55:24.497Z,99.90
2022-08-18T16:58:14.840Z,99.90
2022-08-18T17:01:03.221Z,99.90
2022-08-18T17:03:47.752Z,99.90
2022-08-18T17:06:18.491Z,99.90
2022-08-18T17:08:46.979Z,99.90
2022-08-18T17:11:17.736Z,99.90
2022-08-18T17:13:46.879Z,99.90
2022-08-18T17:16:18.058Z,99.90
2022-08-18T17:18:46.738Z,99.90
2022-08-18T17:21:17.711Z,99.90
2022-08-18T17:23:46.523Z,99.90
2022-08-18T17:26:23.102Z,99.90
2022-08-18T17:28:55.597Z,99.90
2022-08-18T17:31:25.301Z,99.90
2022-08-18T17:33:57.886Z,99.90
2022-08-18T17:36:33.554Z,99.90
2022-08-18T17:39:05.206Z,99.90
2022-08-18T17:41:54.445Z,99.90
2022-08-18T17:44:28.640Z,99.90
2022-08-18T17:47:03.206Z,99.90
2022-08-18T17:49:54.261Z,99.90
2022-08-18T17:52:41.821Z,99.90
2022-08-18T17:55:14.594Z,99.90
2022-08-18T17:57:58.680Z,99.90
2022-08-18T18:00:29.380Z,99.90
2022-08-18T18:02:58.679Z,99.90
2022-08-18T18:05:36.409Z,99.90
2022-08-18T18:08:04.864Z,99.90
2022-08-18T18:10:51.142Z,99.90
2022-08-18T18:13:32.337Z,99.90
2022-08-18T18:16:02.001Z,99.90
2022-08-18T18:18:38.580Z,99.90
2022-08-18T18:21:19.025Z,99.90
2022-08-18T18:23:48.824Z,99.90
2022-08-18T18:26:28.282Z,99.90
2022-08-18T18:29:33.565Z,99.90
2022-08-18T18:32:05.428Z,99.90
2022-08-18T18:34:39.581Z,99.90
2022-08-18T18:37:25.341Z,99.90
2022-08-18T18:39:58.365Z,99.90
2022-08-18T18:42:28.928Z,99.90
2022-08-18T18:44:59.037Z,99.90
2022-08-18T18:47:48.707Z,99.90
2022-08-18T18:50:25.803Z,99.90
2022-08-18T18:53:05.844Z,99.90
2022-08-18T18:55:38.369Z,99.90
2022-08-18T18:58:19.221Z,99.90
2022-08-18T19:00:54.226Z,99.90
2022-08-18T19:03:29.336Z,99.90
2022-08-18T19:06:12.160Z,99.90
2022-08-18T19:08:48.556Z,99.90
2022-08-18T19:11:23.981Z,99.90
2022-08-18T19:13:56.575Z,99.90
2022-08-18T19:16:34.649Z,99.90
2022-08-18T19:19:35.399Z,99.90
2022-08-18T19:22:06.488Z,99.90
2022-08-18T19:24:41.542Z,99.90
2022-08-18T19:27:23.393Z,99.90
2022-08-18T19:29:55.652Z,99.90
2022-08-18T19:32:33.292Z,99.90
2022-08-18T19:35:10.504Z,99.90
2022-08-18T19:38:00.780Z,99.90
2022-08-18T19:40:37.428Z,99.90
2022-08-18T19:43:12.374Z,99.90
2022-08-18T19:45:47.053Z,99.90
2022-08-18T19:51:12.382Z,99.90
2022-08-18T19:53:56.575Z,99.90
2022-08-18T19:56:42.382Z,99.90
2022-08-18T19:59:34.134Z,99.90
2022-08-18T20:02:20.769Z,99.90
2022-08-18T20:05:03.658Z,99.90
2022-08-18T20:08:03.910Z,99.90
2022-08-18T20:10:51.387Z,99.90
2022-08-18T20:13:33.600Z,99.90
2022-08-18T20:16:24.952Z,99.90
2022-08-18T20:18:58.264Z,99.90
2022-08-18T20:21:45.435Z,99.90
2022-08-18T20:24:43.779Z,99.90
2022-08-18T20:27:34.972Z,99.90
2022-08-18T20:30:23.966Z,99.90
2022-08-18T20:33:29.209Z,99.90
2022-08-18T20:36:10.412Z,99.90
2022-08-18T20:38:41.084Z,99.90
2022-08-18T20:41:42.833Z,99.90
2022-08-18T20:44:50.440Z,99.90
2022-08-18T20:47:42.000Z,99.90
2022-08-18T20:50:46.714Z,99.90
2022-08-18T20:53:26.281Z,99.90
2022-08-18T20:56:31.634Z,99.90
2022-08-18T20:59:04.104Z,99.90
2022-08-18T21:01:38.974Z,99.90
2022-08-18T21:04:08.856Z,99.90
2022-08-18T21:06:41.967Z,99.90
2022-08-18T21:09:10.397Z,99.90
2022-08-18T21:11:42.948Z,99.90
2022-08-18T21:14:12.810Z,99.90
2022-08-18T21:16:45.019Z,99.90
2022-08-18T21:19:20.624Z,99.90
2022-08-18T21:21:51.681Z,99.90
2022-08-18T21:24:23.268Z,99.90
2022-08-18T21:26:54.858Z,99.90
2022-08-18T21:29:22.951Z,99.90
2022-08-18T21:31:50.905Z,99.90
2022-08-18T21:34:35.834Z,99.90
2022-08-18T21:37:10.052Z,99.90
2022-08-18T21:39:49.566Z,99.90
2022-08-18T21:42:23.256Z,99.90
2022-08-18T21:44:54.970Z,99.90
2022-08-18T21:47:25.029Z,99.90
2022-08-18T21:50:09.308Z,99.90
2022-08-18T21:52:39.765Z,99.90
2022-08-18T21:55:13.939Z,99.90
2022-08-18T21:58:00.809Z,99.90
2022-08-18T22:00:31.067Z,99.90
2022-08-18T22:03:21.463Z,99.90
2022-08-18T22:06:00.051Z,99.90
2022-08-18T22:08:31.743Z,99.90
2022-08-18T22:11:38.285Z,99.90
2022-08-18T22:14:27.888Z,99.90
2022-08-18T22:17:40.505Z,99.90
2022-08-18T22:20:44.042Z,99.90
2022-08-18T22:23:43.300Z,99.90
2022-08-18T22:26:14.132Z,99.90
2022-08-18T22:28:52.705Z,99.90
2022-08-18T22:31:21.501Z,99.90
2022-08-18T22:33:50.082Z,99.90
2022-08-18T22:36:21.582Z,99.90
2022-08-18T22:38:52.314Z,99.90
2022-08-18T22:41:20.891Z,99.90
2022-08-18T22:43:49.733Z,99.90
2022-08-18T22:46:24.702Z,99.90
2022-08-18T22:48:53.672Z,99.90
2022-08-18T22:51:23.422Z,99.90
2022-08-18T22:53:53.397Z,99.90
2022-08-18T22:56:26.501Z,99.90
2022-08-18T22:59:15.542Z,99.90
2022-08-18T23:01:48.045Z,99.90
2022-08-18T23:04:17.211Z,99.90
2022-08-18T23:06:52.047Z,99.90
2022-08-18T23:09:24.693Z,99.90
2022-08-18T23:11:54.016Z,99.90
2022-08-18T23:14:22.396Z,99.90
2022-08-18T23:16:50.667Z,99.90
2022-08-18T23:19:20.777Z,99.90
2022-08-18T23:21:49.846Z,99.90
2022-08-18T23:24:19.702Z,99.90
2022-08-18T23:26:49.814Z,99.90
2022-08-18T23:29:17.986Z,99.90
2022-08-18T23:31:48.328Z,99.90
2022-08-18T23:34:17.881Z,99.90
2022-08-18T23:36:47.294Z,99.90
2022-08-18T23:39:15.289Z,99.90
2022-08-18T23:41:43.535Z,99.90
2022-08-18T23:44:14.900Z,99.90
2022-08-18T23:46:44.532Z,99.90
2022-08-18T23:49:14.614Z,99.90
2022-08-18T23:51:44.895Z,99.90
2022-08-18T23:54:15.341Z,99.90
2022-08-18T23:56:43.329Z,99.90
2022-08-18T23:59:13.595Z,99.90
